Time;durP1;ratioP1;P1;durP2;ratioP2;P2;SDS_P1;SDS_P2;PMS_P1;PMS_P2;Temp;Humidity;BMP_temperature;BMP_pressure;BME280_temperature;BME280_humidity;BME280_pressure;Samples;Min_cycle;Max_cycle;Signal;HPM_P1;HPM_P2
2021/07/10 00:01:05;;;;;;;12.05;10.73;;;17.70;99.90;;;;;;5071926;28;20222;-75
2021/07/10 00:03:32;;;;;;;11.95;10.75;;;17.70;99.90;;;;;;5072121;28;20209;-75
2021/07/10 00:05:59;;;;;;;11.70;10.55;;;17.70;99.90;;;;;;5071990;28;20206;-74
2021/07/10 00:08:26;;;;;;;12.77;11.43;;;17.70;99.90;;;;;;5072076;28;20314;-74
2021/07/10 00:10:53;;;;;;;11.38;10.25;;;17.60;99.90;;;;;;5071462;28;20202;-75
2021/07/10 00:13:20;;;;;;;12.73;11.43;;;17.50;99.90;;;;;;5072347;28;20294;-76
2021/07/10 00:15:46;;;;;;;11.82;10.70;;;17.30;99.90;;;;;;5075641;28;20293;-74
2021/07/10 00:18:15;;;;;;;11.02;9.95;;;17.40;99.90;;;;;;5075786;28;20317;-74
2021/07/10 00:20:41;;;;;;;13.20;10.48;;;17.40;99.90;;;;;;5075472;28;20689;-74
2021/07/10 00:23:08;;;;;;;11.27;10.18;;;17.30;99.90;;;;;;5075686;28;20203;-73
2021/07/10 00:25:35;;;;;;;17.67;10.85;;;17.30;99.90;;;;;;5075408;28;20245;-76
2021/07/10 00:28:02;;;;;;;11.70;10.55;;;17.30;99.90;;;;;;5075708;28;20223;-76
2021/07/10 00:30:30;;;;;;;13.15;11.85;;;17.30;99.90;;;;;;5075225;28;20213;-74
2021/07/10 00:32:57;;;;;;;12.55;11.30;;;17.30;99.90;;;;;;5075408;28;20207;-76
2021/07/10 00:35:25;;;;;;;14.13;11.75;;;17.30;99.90;;;;;;5075583;28;20814;-73
2021/07/10 00:37:52;;;;;;;13.98;10.98;;;17.30;99.90;;;;;;5075428;28;20223;-74
2021/07/10 00:40:19;;;;;;;12.50;11.15;;;17.30;99.90;;;;;;5075004;28;20572;-74
2021/07/10 00:42:46;;;;;;;13.20;11.23;;;17.30;99.90;;;;;;5075391;28;20218;-72
2021/07/10 00:45:14;;;;;;;12.65;10.80;;;17.30;99.90;;;;;;5075138;28;20244;-73
2021/07/10 00:47:41;;;;;;;11.75;10.65;;;17.30;99.90;;;;;;5075200;28;20222;-74
2021/07/10 00:50:13;;;;;;;12.95;11.35;;;17.30;99.90;;;;;;5075428;28;20199;-79
2021/07/10 00:52:42;;;;;;;11.90;10.57;;;17.30;99.90;;;;;;5076946;28;20202;-74
2021/07/10 00:55:10;;;;;;;12.65;10.30;;;17.30;99.90;;;;;;5075908;28;20207;-74
2021/07/10 00:57:38;;;;;;;11.25;10.15;;;17.20;99.90;;;;;;5077131;28;20318;-74
2021/07/10 01:00:08;;;;;;;12.90;10.55;;;17.10;99.90;;;;;;5076415;28;20665;-74
2021/07/10 01:02:35;;;;;;;12.75;11.45;;;16.90;99.90;;;;;;5076811;28;20293;-74
2021/07/10 01:05:04;;;;;;;12.70;11.30;;;16.50;99.90;;;;;;5077373;28;20206;-74
2021/07/10 01:07:31;;;;;;;13.73;11.35;;;16.50;99.90;;;;;;5076574;28;20256;-74
2021/07/10 01:09:59;;;;;;;12.43;10.90;;;16.50;99.90;;;;;;5076783;28;20208;-75
2021/07/10 01:12:27;;;;;;;12.48;11.18;;;16.50;99.90;;;;;;5076183;28;20201;-74
2021/07/10 01:14:55;;;;;;;13.85;11.13;;;16.60;99.90;;;;;;5075992;28;20301;-74
2021/07/10 01:17:21;;;;;;;12.50;11.15;;;16.60;99.90;;;;;;5076560;28;20293;-74
2021/07/10 01:19:58;;;;;;;12.07;10.75;;;16.60;99.90;;;;;;5076878;28;20289;-74
2021/07/10 01:22:26;;;;;;;13.20;10.45;;;16.70;99.90;;;;;;5076462;28;20210;-74
2021/07/10 01:24:53;;;;;;;12.10;10.90;;;16.70;99.90;;;;;;5076275;28;20205;-74
2021/07/10 01:27:21;;;;;;;12.32;10.23;;;16.70;99.90;;;;;;5076456;28;20207;-74
2021/07/10 01:29:48;;;;;;;11.40;10.20;;;16.70;99.90;;;;;;5076824;28;20220;-74
2021/07/10 01:32:17;;;;;;;10.40;9.38;;;16.70;99.90;;;;;;5076573;28;20645;-74
2021/07/10 01:34:45;;;;;;;10.80;9.43;;;16.70;99.90;;;;;;5076238;28;20203;-74
2021/07/10 01:37:12;;;;;;;11.40;10.20;;;16.70;99.90;;;;;;5076097;28;20298;-74
2021/07/10 01:39:41;;;;;;;10.82;9.70;;;16.70;99.90;;;;;;5076326;28;20205;-74
2021/07/10 01:42:08;;;;;;;10.38;9.27;;;16.60;99.90;;;;;;5076091;28;20629;-74
2021/07/10 01:44:38;;;;;;;11.25;9.77;;;16.70;99.90;;;;;;5076528;28;20213;-74
2021/07/10 01:47:05;;;;;;;9.68;8.60;;;16.60;99.90;;;;;;5076124;28;20201;-74
2021/07/10 01:49:32;;;;;;;11.98;10.50;;;16.40;99.90;;;;;;5076027;28;20309;-74
2021/07/10 01:52:00;;;;;;;12.18;10.93;;;16.40;99.90;;;;;;5075940;28;20197;-74
2021/07/10 01:54:27;;;;;;;12.00;10.60;;;16.30;99.90;;;;;;5076003;28;20309;-74
2021/07/10 01:56:55;;;;;;;13.50;10.43;;;16.30;99.90;;;;;;5075225;28;20206;-74
2021/07/10 01:59:22;;;;;;;11.60;10.45;;;16.30;99.90;;;;;;5075198;28;20317;-74
2021/07/10 02:01:49;;;;;;;11.98;9.45;;;16.40;99.90;;;;;;5075294;28;20317;-74
2021/07/10 02:04:18;;;;;;;10.82;9.73;;;16.40;99.90;;;;;;5075628;28;20300;-73
2021/07/10 02:06:45;;;;;;;11.88;9.65;;;16.40;99.90;;;;;;5075573;28;20213;-74
2021/07/10 02:09:13;;;;;;;11.43;10.30;;;16.40;99.90;;;;;;5076247;28;20224;-74
2021/07/10 02:11:45;;;;;;;11.27;10.13;;;16.40;99.90;;;;;;5075072;28;20292;-74
2021/07/10 02:14:13;;;;;;;11.35;10.15;;;16.50;99.90;;;;;;5075306;28;20301;-74
2021/07/10 02:16:40;;;;;;;12.02;10.82;;;16.50;99.90;;;;;;5075719;28;20292;-74
2021/07/10 02:19:07;;;;;;;13.68;10.98;;;16.40;99.90;;;;;;5075277;28;20230;-73
2021/07/10 02:21:34;;;;;;;16.05;10.48;;;16.40;99.90;;;;;;5075425;28;20230;-74
2021/07/10 02:24:01;;;;;;;11.88;10.63;;;16.40;99.90;;;;;;5075900;28;20202;-74
2021/07/10 02:26:28;;;;;;;15.93;11.20;;;16.20;99.90;;;;;;5075435;28;20205;-73
2021/07/10 02:28:55;;;;;;;12.18;10.43;;;16.20;99.90;;;;;;5075263;28;20287;-74
2021/07/10 02:31:23;;;;;;;15.85;11.75;;;16.10;99.90;;;;;;5075271;28;20544;-73
2021/07/10 02:33:50;;;;;;;13.40;12.00;;;16.10;99.90;;;;;;5075569;28;20268;-74
2021/07/10 02:36:18;;;;;;;13.25;10.73;;;15.90;99.90;;;;;;5075326;28;20215;-74
2021/07/10 02:38:45;;;;;;;14.35;11.60;;;16.00;99.90;;;;;;5074469;28;20226;-74
2021/07/10 02:41:11;;;;;;;16.00;11.45;;;16.00;99.90;;;;;;5074269;28;20235;-73
2021/07/10 02:43:38;;;;;;;16.23;11.45;;;16.10;99.90;;;;;;5074612;28;20565;-74
2021/07/10 02:46:05;;;;;;;15.50;11.25;;;16.10;99.90;;;;;;5074714;28;20588;-74
2021/07/10 02:48:34;;;;;;;14.35;10.18;;;16.20;99.90;;;;;;5074777;28;20244;-74
2021/07/10 02:51:00;;;;;;;11.23;10.07;;;16.20;99.90;;;;;;5074798;28;20206;-73
2021/07/10 02:53:27;;;;;;;12.48;11.20;;;16.30;99.90;;;;;;5075301;28;20212;-74
2021/07/10 02:55:54;;;;;;;12.13;10.82;;;16.20;99.90;;;;;;5074807;28;20687;-74
2021/07/10 02:58:21;;;;;;;12.27;10.45;;;16.20;99.90;;;;;;5074451;28;20228;-73
2021/07/10 03:00:48;;;;;;;11.98;10.77;;;16.00;99.90;;;;;;5073925;28;20205;-73
2021/07/10 03:03:15;;;;;;;12.57;10.70;;;15.80;99.90;;;;;;5074921;28;20204;-74
2021/07/10 03:05:44;;;;;;;12.68;11.38;;;15.80;99.90;;;;;;5074104;28;20698;-74
2021/07/10 03:08:11;;;;;;;12.77;11.57;;;15.60;99.90;;;;;;5074190;28;20682;-73
2021/07/10 03:10:39;;;;;;;13.30;11.90;;;15.70;99.90;;;;;;5074095;28;20292;-73
2021/07/10 03:13:06;;;;;;;12.80;11.43;;;15.70;99.90;;;;;;5074380;28;20210;-73
2021/07/10 03:15:33;;;;;;;12.93;11.60;;;15.60;99.90;;;;;;5074248;28;20243;-73
2021/07/10 03:18:00;;;;;;;11.80;10.52;;;15.60;99.90;;;;;;5073648;28;20229;-73
2021/07/10 03:20:30;;;;;;;12.63;11.32;;;15.80;99.90;;;;;;5074461;28;20215;-73
2021/07/10 03:22:58;;;;;;;12.43;11.13;;;15.80;99.90;;;;;;5074667;28;20284;-73
2021/07/10 03:25:26;;;;;;;11.80;10.60;;;15.80;99.90;;;;;;5074398;28;20209;-74
2021/07/10 03:27:56;;;;;;;11.30;10.05;;;15.90;99.90;;;;;;5074511;28;20326;-74
2021/07/10 03:30:24;;;;;;;12.48;11.15;;;15.90;99.90;;;;;;5073359;28;20633;-74
2021/07/10 03:32:51;;;;;;;11.65;10.52;;;16.00;99.90;;;;;;5073713;28;20206;-73
2021/07/10 03:35:19;;;;;;;12.55;11.10;;;16.00;99.90;;;;;;5073672;28;20199;-73
2021/07/10 03:37:46;;;;;;;12.07;10.88;;;16.00;99.90;;;;;;5074015;28;20229;-73
2021/07/10 03:40:17;;;;;;;12.90;11.50;;;16.00;99.90;;;;;;5073931;28;20203;-74
2021/07/10 03:42:45;;;;;;;12.15;10.95;;;15.90;99.90;;;;;;5073992;28;20321;-73
2021/07/10 03:45:13;;;;;;;13.75;11.20;;;15.90;99.90;;;;;;5074025;28;20227;-74
2021/07/10 03:47:40;;;;;;;13.77;11.75;;;15.70;99.90;;;;;;5073523;28;20699;-74
2021/07/10 03:50:09;;;;;;;13.13;11.82;;;15.60;99.90;;;;;;5076761;28;20204;-73
2021/07/10 03:52:36;;;;;;;13.48;11.90;;;15.50;99.90;;;;;;5077833;28;20563;-73
2021/07/10 03:55:04;;;;;;;14.30;12.80;;;15.50;99.90;;;;;;5077875;28;20204;-73
2021/07/10 03:57:32;;;;;;;12.68;11.30;;;15.50;99.90;;;;;;5077693;28;20215;-73
2021/07/10 03:59:59;;;;;;;11.77;10.65;;;15.50;99.90;;;;;;5078087;28;20655;-73
2021/07/10 04:02:26;;;;;;;10.13;9.07;;;15.60;99.90;;;;;;5077491;28;20225;-73
2021/07/10 04:04:53;;;;;;;10.40;9.40;;;15.70;99.90;;;;;;5077620;28;20212;-73
2021/07/10 04:07:20;;;;;;;11.38;10.20;;;15.80;99.90;;;;;;5077375;28;20668;-73
2021/07/10 04:09:46;;;;;;;11.60;10.40;;;15.70;99.90;;;;;;5077649;28;20277;-73
2021/07/10 04:12:13;;;;;;;11.73;10.52;;;15.80;99.90;;;;;;5077484;28;20208;-73
2021/07/10 04:14:41;;;;;;;11.85;10.65;;;15.80;99.90;;;;;;5077882;28;20206;-73
2021/07/10 04:17:08;;;;;;;10.60;9.60;;;15.80;99.90;;;;;;5077470;28;20604;-73
2021/07/10 04:19:35;;;;;;;12.45;11.25;;;15.60;99.90;;;;;;5077213;28;20225;-73
2021/07/10 04:22:02;;;;;;;11.52;10.43;;;15.60;99.90;;;;;;5077223;28;20231;-73
2021/07/10 04:24:29;;;;;;;12.50;11.30;;;15.60;99.90;;;;;;5077479;28;20562;-73
2021/07/10 04:26:55;;;;;;;11.63;10.45;;;15.70;99.90;;;;;;5077865;28;20201;-73
2021/07/10 04:29:22;;;;;;;11.98;10.70;;;15.70;99.90;;;;;;5076945;28;20344;-73
2021/07/10 04:31:50;;;;;;;12.50;9.75;;;15.80;99.90;;;;;;5075993;28;20208;-73
2021/07/10 04:34:17;;;;;;;11.30;10.20;;;15.90;99.90;;;;;;5076277;28;20236;-73
2021/07/10 04:36:44;;;;;;;10.35;9.35;;;16.00;99.90;;;;;;5076124;28;20371;-73
2021/07/10 04:39:11;;;;;;;12.23;11.02;;;16.10;99.90;;;;;;5076517;28;20221;-73
2021/07/10 04:41:38;;;;;;;11.45;10.30;;;15.90;99.90;;;;;;5075583;28;20232;-73
2021/07/10 04:44:04;;;;;;;11.45;10.40;;;15.80;99.90;;;;;;5076085;28;20205;-73
2021/07/10 04:46:31;;;;;;;12.40;11.10;;;15.70;99.90;;;;;;5076002;28;20533;-73
2021/07/10 04:49:00;;;;;;;11.52;10.38;;;15.80;99.90;;;;;;5075984;28;20353;-73
2021/07/10 04:51:27;;;;;;;13.23;11.93;;;15.70;99.90;;;;;;5075641;28;20555;-73
2021/07/10 04:53:54;;;;;;;12.43;11.10;;;15.60;99.90;;;;;;5076140;28;20297;-73
2021/07/10 04:56:20;;;;;;;13.15;11.00;;;15.70;99.90;;;;;;5076221;28;20201;-73
2021/07/10 04:58:47;;;;;;;14.38;11.32;;;15.80;99.90;;;;;;5075300;28;20228;-73
2021/07/10 05:01:14;;;;;;;13.15;11.85;;;15.80;99.90;;;;;;5075676;28;20212;-73
2021/07/10 05:03:41;;;;;;;19.58;16.13;;;15.70;99.90;;;;;;5075720;28;20319;-73
2021/07/10 05:06:10;;;;;;;17.80;14.32;;;15.60;99.90;;;;;;5076219;28;20309;-73
2021/07/10 05:08:37;;;;;;;16.60;14.20;;;15.70;99.90;;;;;;5075754;28;20252;-73
2021/07/10 05:11:04;;;;;;;16.38;14.57;;;15.80;99.90;;;;;;5075824;28;20566;-73
2021/07/10 05:13:31;;;;;;;13.95;12.10;;;15.90;99.90;;;;;;5075936;28;20228;-73
2021/07/10 05:15:58;;;;;;;14.70;12.73;;;15.80;99.90;;;;;;5075640;28;20300;-73
2021/07/10 05:18:24;;;;;;;15.07;13.48;;;15.80;99.90;;;;;;5075972;28;20311;-73
2021/07/10 05:20:51;;;;;;;13.18;11.77;;;15.90;99.90;;;;;;5075328;28;20297;-73
2021/07/10 05:23:19;;;;;;;14.20;12.70;;;16.00;99.90;;;;;;5075661;28;20602;-73
2021/07/10 05:25:46;;;;;;;15.52;12.68;;;16.10;99.90;;;;;;5075256;28;20296;-73
2021/07/10 05:28:13;;;;;;;14.93;12.65;;;16.20;99.90;;;;;;5075456;28;20229;-73
2021/07/10 05:30:40;;;;;;;13.93;12.47;;;16.30;99.90;;;;;;5037869;28;1076528;-73
2021/07/10 05:33:07;;;;;;;13.68;11.82;;;16.40;99.90;;;;;;5076458;28;20579;-73
2021/07/10 05:35:35;;;;;;;13.43;11.95;;;16.50;99.90;;;;;;5076387;28;20698;-73
2021/07/10 05:38:02;;;;;;;12.57;11.15;;;16.50;99.90;;;;;;5076214;28;20225;-73
2021/07/10 05:40:31;;;;;;;13.25;11.63;;;16.40;99.90;;;;;;5075532;28;20205;-73
2021/07/10 05:42:57;;;;;;;13.10;11.70;;;16.50;99.90;;;;;;5076717;28;20222;-73
2021/07/10 05:45:24;;;;;;;15.20;13.45;;;16.50;99.90;;;;;;5076234;28;20210;-73
2021/07/10 05:47:52;;;;;;;13.82;12.30;;;16.50;99.90;;;;;;5076274;28;20312;-73
2021/07/10 05:50:19;;;;;;;14.45;11.57;;;16.50;99.90;;;;;;5076446;28;20739;-73
2021/07/10 05:52:46;;;;;;;15.05;13.50;;;16.40;99.90;;;;;;5076250;28;20293;-73
2021/07/10 05:55:13;;;;;;;17.17;14.40;;;16.30;99.90;;;;;;5076336;28;20657;-73
2021/07/10 05:57:42;;;;;;;15.73;13.75;;;16.20;99.90;;;;;;5076691;28;20226;-73
2021/07/10 06:00:11;;;;;;;17.60;14.73;;;16.20;99.90;;;;;;5075682;28;20205;-72
2021/07/10 06:02:38;;;;;;;16.38;14.63;;;16.10;99.90;;;;;;5075977;28;20308;-73
2021/07/10 06:05:08;;;;;;;15.73;14.10;;;16.20;99.90;;;;;;5075830;28;20211;-73
2021/07/10 06:07:37;;;;;;;16.40;14.70;;;16.20;99.90;;;;;;5076108;28;20229;-73
2021/07/10 06:10:06;;;;;;;17.05;14.63;;;16.30;99.90;;;;;;5075429;28;20236;-72
2021/07/10 06:12:33;;;;;;;17.40;14.02;;;16.30;99.90;;;;;;5074741;28;20232;-73
2021/07/10 06:15:01;;;;;;;16.85;13.73;;;16.40;99.90;;;;;;5075937;28;20295;-73
2021/07/10 06:17:28;;;;;;;14.05;12.60;;;16.50;99.90;;;;;;5075973;28;20237;-73
2021/07/10 06:19:55;;;;;;;16.27;13.38;;;16.50;99.90;;;;;;5075820;28;20627;-72
2021/07/10 06:22:22;;;;;;;14.02;12.52;;;16.60;99.90;;;;;;5075547;28;20762;-73
2021/07/10 06:24:49;;;;;;;14.27;12.88;;;16.60;99.90;;;;;;5075272;28;20206;-73
2021/07/10 06:27:15;;;;;;;13.52;12.10;;;16.80;99.90;;;;;;5074936;28;20309;-73
2021/07/10 06:29:43;;;;;;;15.45;13.85;;;16.90;99.90;;;;;;5075557;28;20245;-73
2021/07/10 06:32:12;;;;;;;14.35;12.85;;;17.00;99.90;;;;;;5075494;28;20245;-73
2021/07/10 06:34:39;;;;;;;13.50;12.10;;;17.20;99.90;;;;;;5075067;28;20680;-73
2021/07/10 06:37:06;;;;;;;13.25;11.85;;;17.20;99.90;;;;;;5075098;28;20323;-73
2021/07/10 06:39:33;;;;;;;13.30;11.95;;;17.30;99.90;;;;;;5074841;28;20717;-73
2021/07/10 06:42:00;;;;;;;13.50;12.20;;;17.30;99.90;;;;;;5075237;28;20209;-72
2021/07/10 06:44:27;;;;;;;13.13;11.75;;;17.40;99.90;;;;;;5075791;28;20621;-73
2021/07/10 06:46:54;;;;;;;13.05;11.70;;;17.40;99.90;;;;;;5075903;28;20297;-73
2021/07/10 06:49:22;;;;;;;13.15;11.88;;;17.60;99.90;;;;;;5075391;28;20633;-73
2021/07/10 06:51:49;;;;;;;14.07;12.77;;;17.70;99.90;;;;;;5075235;28;20530;-72
2021/07/10 06:54:16;;;;;;;16.05;12.15;;;17.80;99.90;;;;;;5075207;28;20198;-73
2021/07/10 06:56:43;;;;;;;13.88;11.43;;;18.10;99.90;;;;;;5074448;28;20202;-73
2021/07/10 06:59:11;;;;;;;12.38;11.18;;;18.40;99.90;;;;;;5073954;28;20233;-73
2021/07/10 07:01:38;;;;;;;11.02;10.00;;;18.60;99.90;;;;;;5074786;28;20571;-73
2021/07/10 07:04:06;;;;;;;9.68;8.73;;;18.80;99.90;;;;;;5074702;28;20704;-73
2021/07/10 07:06:34;;;;;;;9.83;8.93;;;19.20;99.90;;;;;;5074852;28;20638;-73
2021/07/10 07:09:01;;;;;;;10.10;9.10;;;20.20;99.90;;;;;;5074827;28;20551;-73
2021/07/10 07:11:27;;;;;;;8.53;7.80;;;21.00;99.90;;;;;;5074480;28;20452;-73
2021/07/10 07:13:54;;;;;;;8.30;7.50;;;21.40;99.90;;;;;;5075415;28;20441;-73
2021/07/10 07:16:21;;;;;;;9.50;8.70;;;21.70;99.90;;;;;;5075023;28;20446;-73
2021/07/10 07:18:48;;;;;;;8.67;7.87;;;21.90;99.90;;;;;;5075802;28;20479;-73
2021/07/10 07:21:15;;;;;;;9.50;8.60;;;21.90;99.90;;;;;;5074971;28;20945;-73
2021/07/10 07:23:43;;;;;;;8.90;8.00;;;22.20;99.90;;;;;;5074696;28;20505;-73
2021/07/10 07:26:10;;;;;;;9.43;8.63;;;21.90;99.90;;;;;;5074562;28;20477;-72
2021/07/10 07:28:37;;;;;;;9.73;8.83;;;21.80;99.90;;;;;;5073461;28;20475;-73
2021/07/10 07:31:04;;;;;;;12.30;8.97;;;21.40;99.90;;;;;;5074156;28;20483;-73
2021/07/10 07:33:31;;;;;;;10.03;9.13;;;21.40;99.90;;;;;;5073862;28;20439;-73
2021/07/10 07:35:58;;;;;;;10.07;9.17;;;21.60;99.90;;;;;;5074114;28;20443;-73
2021/07/10 07:38:25;;;;;;;10.57;9.57;;;21.90;99.90;;;;;;5074192;28;20469;-73
2021/07/10 07:40:53;;;;;;;10.10;9.27;;;22.30;99.90;;;;;;5073757;28;20449;-73
2021/07/10 07:43:20;;;;;;;8.77;8.07;;;22.30;99.90;;;;;;5073503;28;20826;-73
2021/07/10 07:45:47;;;;;;;14.20;12.90;;;22.10;99.90;;;;;;5073626;28;20447;-73
2021/07/10 07:48:14;;;;;;;8.43;7.63;;;22.10;99.90;;;;;;5073294;28;20491;-73
2021/07/10 07:50:41;;;;;;;7.70;7.10;;;22.00;99.90;;;;;;5073545;28;20443;-73
2021/07/10 07:53:07;;;;;;;9.33;8.43;;;22.30;99.90;;;;;;5073927;28;20803;-73
2021/07/10 07:55:36;;;;;;;9.47;8.30;;;22.60;99.90;;;;;;5073691;28;20477;-73
2021/07/10 07:58:05;;;;;;;8.10;7.50;;;23.20;99.90;;;;;;5073974;28;20468;-72
2021/07/10 08:00:32;;;;;;;9.13;8.33;;;24.00;99.90;;;;;;5073208;28;20442;-73
2021/07/10 08:02:59;;;;;;;8.33;7.53;;;24.40;99.90;;;;;;5073569;28;20562;-73
2021/07/10 08:05:26;;;;;;;7.77;7.07;;;24.70;99.90;;;;;;5073604;28;20532;-73
2021/07/10 08:07:53;;;;;;;8.17;7.47;;;25.00;99.90;;;;;;5073604;28;20468;-73
2021/07/10 08:10:20;;;;;;;8.50;7.80;;;25.40;99.90;;;;;;5073148;28;20449;-73
2021/07/10 08:12:49;;;;;;;7.87;7.10;;;25.60;99.90;;;;;;5073107;28;20441;-73
2021/07/10 08:15:19;;;;;;;7.90;7.30;;;26.00;99.90;;;;;;5073306;28;20445;-73
2021/07/10 08:17:48;;;;;;;8.03;7.33;;;26.40;99.50;;;;;;5072931;28;20469;-73
2021/07/10 08:20:15;;;;;;;7.30;6.70;;;26.70;96.40;;;;;;5073317;28;20532;-73
2021/07/10 08:22:43;;;;;;;6.90;6.30;;;27.30;95.30;;;;;;5073588;28;20455;-73
2021/07/10 08:25:10;;;;;;;6.37;5.87;;;28.20;92.90;;;;;;5072923;28;20448;-73
2021/07/10 08:27:37;;;;;;;7.63;6.90;;;28.70;91.70;;;;;;5072702;28;20975;-73
2021/07/10 08:30:06;;;;;;;7.10;6.50;;;29.00;86.40;;;;;;5072806;28;20461;-73
2021/07/10 08:32:34;;;;;;;6.90;6.40;;;29.20;84.60;;;;;;5073019;28;20452;-73
2021/07/10 08:35:01;;;;;;;7.37;6.87;;;29.30;84.60;;;;;;5073793;28;20539;-73
2021/07/10 08:37:28;;;;;;;7.23;6.63;;;29.50;84.90;;;;;;5076500;28;20532;-73
2021/07/10 08:39:55;;;;;;;7.00;6.50;;;29.70;84.80;;;;;;5076775;28;20450;-73
2021/07/10 08:42:21;;;;;;;7.20;6.70;;;30.20;83.50;;;;;;5076908;28;20531;-73
2021/07/10 08:44:52;;;;;;;7.00;6.50;;;30.70;75.80;;;;;;5076926;28;20488;-73
2021/07/10 08:47:19;;;;;;;6.97;6.47;;;31.20;73.20;;;;;;5076427;28;20442;-73
2021/07/10 08:49:47;;;;;;;7.90;7.27;;;31.40;75.90;;;;;;5076192;28;20460;-73
2021/07/10 08:52:14;;;;;;;5.90;5.50;;;32.20;69.50;;;;;;5076428;28;20445;-73
2021/07/10 08:54:41;;;;;;;6.70;6.30;;;33.40;63.00;;;;;;5076589;28;20798;-73
2021/07/10 08:57:08;;;;;;;6.10;5.60;;;33.70;57.20;;;;;;5076577;28;20451;-73
2021/07/10 08:59:37;;;;;;;6.00;5.60;;;33.60;58.40;;;;;;5076856;28;20465;-73
2021/07/10 09:02:04;;;;;;;6.10;5.50;;;33.70;59.00;;;;;;5076582;28;20445;-73
2021/07/10 09:04:31;;;;;;;5.73;5.43;;;34.50;55.70;;;;;;5076068;28;20480;-73
2021/07/10 09:06:59;;;;;;;6.40;6.00;;;34.90;53.50;;;;;;5076317;28;20441;-73
2021/07/10 09:09:41;;;;;;;5.60;5.20;;;36.20;50.60;;;;;;5076258;28;20465;-73
2021/07/10 09:12:08;;;;;;;5.70;5.30;;;36.70;48.30;;;;;;5076094;28;20431;-73
2021/07/10 09:14:35;;;;;;;5.60;5.20;;;36.50;47.80;;;;;;5076546;28;20437;-74
2021/07/10 09:17:15;;;;;;;5.50;5.10;;;36.40;50.10;;;;;;5076179;28;20441;-74
2021/07/10 09:19:42;;;;;;;4.63;4.37;;;36.50;49.80;;;;;;5076238;28;20479;-73
2021/07/10 09:22:11;;;;;;;4.47;4.20;;;37.00;45.10;;;;;;5075811;28;20445;-74
2021/07/10 09:24:41;;;;;;;4.47;4.27;;;38.00;44.40;;;;;;5076346;28;20488;-74
2021/07/10 09:27:10;;;;;;;4.90;4.60;;;37.90;42.00;;;;;;5079306;28;20471;-74
2021/07/10 09:29:39;;;;;;;5.20;4.90;;;37.70;44.20;;;;;;5077803;28;20551;-73
2021/07/10 09:32:08;;;;;;;5.40;5.10;;;37.30;40.80;;;;;;5082074;28;20448;-75
2021/07/10 09:34:39;;;;;;;4.80;4.50;;;36.20;42.40;;;;;;5077754;28;20449;-74
2021/07/10 09:37:08;;;;;;;4.60;4.20;;;35.80;43.50;;;;;;5075413;28;20441;-75
2021/07/10 09:39:40;;;;;;;4.77;4.43;;;36.20;43.40;;;;;;5076163;28;20465;-75
2021/07/10 09:42:07;;;;;;;5.13;4.83;;;37.40;41.00;;;;;;5075746;28;20522;-75
2021/07/10 09:44:45;;;;;;;6.90;6.40;;;37.90;40.00;;;;;;5075874;28;20491;-73
2021/07/10 09:47:13;;;;;;;4.80;4.50;;;38.50;41.50;;;;;;5074079;28;20446;-73
2021/07/10 09:49:42;;;;;;;5.30;4.90;;;37.60;42.40;;;;;;5075293;28;20544;-73
2021/07/10 09:52:11;;;;;;;4.57;4.27;;;36.80;41.60;;;;;;5074820;28;20793;-73
2021/07/10 09:54:42;;;;;;;5.50;5.10;;;36.10;42.90;;;;;;5074836;28;20469;-75
2021/07/10 09:57:15;;;;;;;4.37;4.07;;;35.70;42.30;;;;;;5074872;28;20886;-75
2021/07/10 09:59:45;;;;;;;4.80;4.50;;;36.00;42.70;;;;;;5075259;28;20457;-75
2021/07/10 10:02:26;;;;;;;4.50;4.20;;;36.40;42.80;;;;;;5074100;28;20449;-76
2021/07/10 10:05:01;;;;;;;4.90;4.60;;;37.30;42.60;;;;;;5073218;28;20475;-76
2021/07/10 10:07:27;;;;;;;4.60;4.40;;;37.20;41.40;;;;;;5073317;28;20444;-75
2021/07/10 10:09:59;;;;;;;5.00;4.60;;;37.20;41.20;;;;;;5073591;28;20471;-76
2021/07/10 10:12:26;;;;;;;5.23;4.93;;;37.80;40.90;;;;;;5073372;28;20445;-76
2021/07/10 10:14:56;;;;;;;4.37;4.07;;;37.50;37.70;;;;;;5073048;28;20472;-75
2021/07/10 10:17:25;;;;;;;5.10;4.80;;;37.60;40.00;;;;;;5073123;28;20449;-75
2021/07/10 10:19:53;;;;;;;3.77;3.57;;;37.30;40.90;;;;;;5073412;28;20452;-74
2021/07/10 10:22:20;;;;;;;4.50;4.20;;;37.90;39.80;;;;;;5073452;28;20535;-74
2021/07/10 10:24:49;;;;;;;3.90;3.70;;;37.90;39.10;;;;;;5073174;28;20483;-73
2021/07/10 10:27:18;;;;;;;4.00;3.80;;;38.00;39.00;;;;;;5075030;28;20455;-73
2021/07/10 10:29:45;;;;;;;4.67;4.30;;;38.70;37.90;;;;;;5075065;28;20944;-75
2021/07/10 10:32:13;;;;;;;4.97;4.50;;;38.20;36.60;;;;;;5073157;28;20443;-73
2021/07/10 10:34:41;;;;;;;4.20;4.00;;;38.10;37.80;;;;;;5073221;28;20481;-73
2021/07/10 10:37:11;;;;;;;4.70;4.50;;;37.20;41.00;;;;;;5072730;28;20491;-75
2021/07/10 10:39:38;;;;;;;4.60;4.30;;;36.00;42.10;;;;;;5072931;28;20547;-73
2021/07/10 10:42:08;;;;;;;4.50;4.20;;;35.10;42.60;;;;;;5072753;28;20449;-73
2021/07/10 10:44:40;;;;;;;4.50;4.20;;;34.60;43.10;;;;;;5073090;28;20440;-74
2021/07/10 10:47:09;;;;;;;4.73;4.43;;;33.90;44.00;;;;;;5072613;28;20441;-72
2021/07/10 10:49:39;;;;;;;4.20;3.90;;;33.20;45.30;;;;;;5072764;28;21004;-73
2021/07/10 10:52:35;;;;;;;4.33;4.13;;;32.20;47.90;;;;;;5073298;28;20442;-75
2021/07/10 10:55:13;;;;;;;4.50;4.20;;;31.80;48.10;;;;;;5071397;28;20485;-73
2021/07/10 10:57:45;;;;;;;4.20;3.90;;;30.70;52.10;;;;;;5072420;28;20499;-73
2021/07/10 11:00:17;;;;;;;4.13;3.73;;;30.20;52.40;;;;;;5072930;28;20457;-73
2021/07/10 11:02:57;;;;;;;5.27;4.87;;;29.80;51.70;;;;;;5073032;28;20449;-72
2021/07/10 11:05:52;;;;;;;4.90;4.50;;;29.50;52.40;;;;;;5072848;28;20447;-74
2021/07/10 11:08:31;;;;;;;4.70;4.30;;;29.30;52.30;;;;;;5054899;28;21023;-72
2021/07/10 11:11:19;;;;;;;6.27;5.87;;;29.10;53.80;;;;;;5072383;28;20452;-73
2021/07/10 11:14:02;;;;;;;4.50;4.20;;;28.80;55.20;;;;;;5072527;28;20493;-73
2021/07/10 11:16:31;;;;;;;4.17;3.87;;;28.90;54.90;;;;;;5072684;28;20484;-74
2021/07/10 11:19:00;;;;;;;4.70;4.40;;;28.60;52.80;;;;;;5072341;28;20468;-73
2021/07/10 11:21:44;;;;;;;4.47;4.17;;;28.50;56.50;;;;;;5072717;28;20467;-74
2021/07/10 11:24:29;;;;;;;4.03;3.83;;;28.40;56.30;;;;;;5072737;28;20445;-74
2021/07/10 11:27:26;;;;;;;4.40;4.10;;;28.20;55.90;;;;;;5073065;28;20500;-72
2021/07/10 11:30:19;;;;;;;4.67;4.30;;;28.30;56.60;;;;;;5074288;28;20484;-76
2021/07/10 11:32:47;;;;;;;5.17;4.67;;;28.40;57.10;;;;;;5064515;28;20445;-76
2021/07/10 11:35:36;;;;;;;5.07;4.50;;;28.10;56.70;;;;;;5075190;28;20487;-76
2021/07/10 11:38:03;;;;;;;4.80;4.50;;;27.90;58.50;;;;;;5075605;28;20468;-76
2021/07/10 11:40:38;;;;;;;4.83;4.50;;;27.80;59.80;;;;;;5075333;28;20485;-76
2021/07/10 11:43:10;;;;;;;4.87;4.57;;;27.70;60.70;;;;;;5074945;28;20449;-76
2021/07/10 11:45:47;;;;;;;4.50;4.10;;;27.70;58.20;;;;;;5075456;28;21010;-76
2021/07/10 11:48:26;;;;;;;4.90;4.60;;;27.70;59.20;;;;;;5075285;28;20467;-76
2021/07/10 11:51:05;;;;;;;5.60;5.20;;;27.80;62.20;;;;;;5073848;28;20441;-76
2021/07/10 11:53:32;;;;;;;5.77;5.27;;;27.80;61.90;;;;;;5074292;28;20444;-76
2021/07/10 11:56:00;;;;;;;5.50;5.10;;;27.80;59.80;;;;;;5073820;28;20442;-76
2021/07/10 11:58:27;;;;;;;5.27;4.87;;;27.70;58.60;;;;;;5074217;28;20493;-76
2021/07/10 12:01:02;;;;;;;5.40;5.00;;;27.50;62.30;;;;;;5074003;28;20866;-76
2021/07/10 12:03:31;;;;;;;5.50;5.10;;;27.60;63.00;;;;;;5074090;28;20444;-77
2021/07/10 12:05:58;;;;;;;5.00;4.70;;;27.50;64.80;;;;;;5074699;28;20441;-76
2021/07/10 12:08:31;;;;;;;5.03;4.63;;;27.60;60.00;;;;;;5074539;28;20476;-76
2021/07/10 12:10:58;;;;;;;4.57;4.27;;;27.70;62.10;;;;;;5077886;28;20477;-77
2021/07/10 12:13:30;;;;;;;6.40;5.90;;;28.00;62.80;;;;;;5078650;28;20472;-78
2021/07/10 12:15:59;;;;;;;5.70;5.20;;;27.90;61.50;;;;;;5076752;28;20571;-76
2021/07/10 12:18:30;;;;;;;5.50;5.07;;;27.70;63.30;;;;;;5076191;28;20469;-76
2021/07/10 12:21:01;;;;;;;5.60;5.20;;;27.60;68.00;;;;;;5075766;28;20535;-74
2021/07/10 12:23:31;;;;;;;8.83;4.73;;;27.70;64.60;;;;;;5075723;28;20537;-72
2021/07/10 12:25:59;;;;;;;5.00;4.70;;;27.80;62.00;;;;;;5075754;28;20441;-71
2021/07/10 12:28:38;;;;;;;5.63;5.23;;;27.70;63.50;;;;;;5075874;28;20507;-72
2021/07/10 12:31:13;;;;;;;5.47;5.07;;;27.90;63.90;;;;;;5075451;28;20885;-72
2021/07/10 12:33:59;;;;;;;5.47;4.97;;;27.90;66.20;;;;;;5075663;28;20451;-73
2021/07/10 12:36:30;;;;;;;5.50;5.00;;;27.90;62.70;;;;;;5075462;28;20443;-74
2021/07/10 12:39:15;;;;;;;5.23;4.80;;;27.90;64.30;;;;;;5075158;28;20482;-73
2021/07/10 12:41:46;;;;;;;5.03;4.63;;;28.00;64.60;;;;;;5075760;28;20952;-71
2021/07/10 12:44:19;;;;;;;4.83;4.53;;;28.10;66.10;;;;;;5076459;28;20443;-71